Time;durP1;ratioP1;P1;durP2;ratioP2;P2;SDS_P1;SDS_P2;PMS_P1;PMS_P2;Temp;Humidity;BMP_temperature;BMP_pressure;BME280_temperature;BME280_humidity;BME280_pressure;Samples;Min_cycle;Max_cycle;Signal;HPM_P1;HPM_P2
2022/12/20 00:02:03;;;;;;;2.28;1.63;;;9.20;99.90;;;;;;5021620;28;20029;-89
2022/12/20 00:04:29;;;;;;;0.57;0.57;;;9.20;99.90;;;;;;5036383;28;20022;-86
2022/12/20 00:06:55;;;;;;;0.50;0.50;;;9.10;99.90;;;;;;5026913;28;21148;-85
2022/12/20 00:09:20;;;;;;;1.05;0.75;;;9.10;99.90;;;;;;5012117;28;20067;-89
2022/12/20 00:11:46;;;;;;;0.88;0.88;;;9.20;99.90;;;;;;5007771;28;20081;-89
2022/12/20 00:14:12;;;;;;;0.82;0.82;;;9.20;99.90;;;;;;5007660;28;20041;-87
2022/12/20 00:16:38;;;;;;;0.45;0.45;;;9.10;99.90;;;;;;4982456;28;20053;-86
2022/12/20 00:19:05;;;;;;;1.73;1.08;;;9.10;99.90;;;;;;5025446;28;20088;-86
2022/12/20 00:21:33;;;;;;;0.40;0.40;;;9.00;99.90;;;;;;5036922;28;20512;-88
2022/12/20 00:23:59;;;;;;;0.60;0.60;;;9.00;99.90;;;;;;5053007;28;20075;-88
2022/12/20 00:26:30;;;;;;;0.52;0.52;;;8.90;99.90;;;;;;5036039;28;20041;-89
2022/12/20 00:28:56;;;;;;;0.63;0.63;;;8.90;99.90;;;;;;5048570;28;20053;-87
2022/12/20 00:31:23;;;;;;;0.50;0.50;;;8.80;99.90;;;;;;5027823;28;20428;-85
2022/12/20 00:33:51;;;;;;;0.60;0.60;;;8.80;99.90;;;;;;5015923;28;20056;-88
2022/12/20 00:36:18;;;;;;;0.60;0.60;;;8.80;99.90;;;;;;5030070;28;20559;-89
2022/12/20 00:38:45;;;;;;;2.08;0.70;;;8.90;99.90;;;;;;5029363;28;20037;-87
2022/12/20 00:41:17;;;;;;;0.47;0.47;;;8.90;99.90;;;;;;5028301;28;20487;-87
2022/12/20 00:43:42;;;;;;;0.40;0.40;;;8.90;99.90;;;;;;5022371;28;21567;-86
2022/12/20 00:46:10;;;;;;;0.30;0.30;;;9.00;99.90;;;;;;5029794;28;20059;-84
2022/12/20 00:48:36;;;;;;;0.63;0.63;;;9.00;99.90;;;;;;5025305;28;20110;-86
2022/12/20 00:51:14;;;;;;;0.50;0.50;;;8.90;99.90;;;;;;5013288;28;20064;-87
2022/12/20 00:53:40;;;;;;;0.70;0.70;;;8.90;99.90;;;;;;5029687;28;20052;-86
2022/12/20 00:56:06;;;;;;;;;;;8.90;99.90;;;;;;5012971;28;20037;-87
2022/12/20 00:58:34;;;;;;;0.82;0.82;;;8.90;99.90;;;;;;5043042;28;20585;-86
2022/12/20 01:01:00;;;;;;;2.40;2.17;;;8.80;99.90;;;;;;5028814;28;20179;-85
2022/12/20 01:03:26;;;;;;;0.40;0.40;;;8.80;99.90;;;;;;5005178;28;20094;-89
2022/12/20 01:05:53;;;;;;;0.60;0.60;;;8.80;99.90;;;;;;5013132;28;20052;-88
2022/12/20 01:08:20;;;;;;;0.43;0.43;;;8.80;99.90;;;;;;5008504;28;20064;-88
2022/12/20 01:10:46;;;;;;;2.08;0.98;;;8.80;99.90;;;;;;5030785;28;20135;-86
2022/12/20 01:13:12;;;;;;;1.48;1.38;;;8.80;99.90;;;;;;5049246;28;20044;-85
2022/12/20 01:15:39;;;;;;;0.52;0.52;;;8.90;99.90;;;;;;5027986;28;20260;-89
2022/12/20 01:18:04;;;;;;;0.50;0.50;;;9.00;99.90;;;;;;5005985;28;20057;-86
2022/12/20 01:20:30;;;;;;;0.40;0.40;;;9.00;99.90;;;;;;5029173;28;20102;-85
2022/12/20 01:22:56;;;;;;;0.57;0.57;;;9.00;99.90;;;;;;5027599;28;20060;-86
2022/12/20 01:25:21;;;;;;;0.60;0.60;;;9.10;99.90;;;;;;5013770;28;20049;-87
2022/12/20 01:27:47;;;;;;;0.50;0.50;;;9.00;99.90;;;;;;5012637;28;20057;-87
2022/12/20 01:30:13;;;;;;;1.45;0.73;;;9.00;99.90;;;;;;5029917;28;20045;-88
2022/12/20 01:32:38;;;;;;;0.30;0.30;;;9.10;99.90;;;;;;5032054;28;20041;-88
2022/12/20 01:35:04;;;;;;;1.83;0.50;;;9.10;99.90;;;;;;5013430;28;20049;-86
2022/12/20 01:37:30;;;;;;;0.50;0.50;;;9.10;99.90;;;;;;5025915;28;20156;-86
2022/12/20 01:39:56;;;;;;;0.65;0.65;;;9.10;99.90;;;;;;5030193;28;20059;-87
2022/12/20 01:42:22;;;;;;;0.40;0.40;;;9.10;99.90;;;;;;5028281;28;20045;-87
2022/12/20 01:44:53;;;;;;;0.70;0.70;;;9.00;99.90;;;;;;5030705;28;20132;-87
2022/12/20 01:47:19;;;;;;;0.50;0.50;;;9.00;99.90;;;;;;5030548;28;20053;-86
2022/12/20 01:49:47;;;;;;;0.55;0.55;;;9.00;99.90;;;;;;5025896;28;20915;-88
2022/12/20 01:52:23;;;;;;;1.20;1.20;;;9.00;99.90;;;;;;5028669;28;20041;-88
2022/12/20 01:55:18;;;;;;;1.20;1.10;;;9.00;99.90;;;;;;5028352;28;20119;-87
2022/12/20 01:57:57;;;;;;;0.50;0.50;;;9.10;99.90;;;;;;5041786;28;20072;-86
2022/12/20 02:00:23;;;;;;;1.15;1.10;;;8.90;99.90;;;;;;5029196;28;20061;-89
2022/12/20 02:02:49;;;;;;;;;;;8.90;99.90;;;;;;5007213;28;20119;-88
2022/12/20 02:05:17;;;;;;;0.40;0.40;;;8.90;99.90;;;;;;5010290;28;19928;-87
2022/12/20 02:07:45;;;;;;;0.40;0.40;;;8.90;99.90;;;;;;5025549;28;20067;-88
2022/12/20 02:10:11;;;;;;;0.63;0.63;;;8.90;99.90;;;;;;5010904;28;20087;-85
2022/12/20 02:12:43;;;;;;;0.40;0.40;;;8.90;99.90;;;;;;5011232;28;21919;-86
2022/12/20 02:15:34;;;;;;;0.95;0.95;;;8.90;99.90;;;;;;5026350;28;20072;-86
2022/12/20 02:18:14;;;;;;;0.40;0.40;;;8.90;99.90;;;;;;5027161;28;20143;-87
2022/12/20 02:20:49;;;;;;;0.73;0.73;;;8.90;99.90;;;;;;5027294;28;20057;-87
2022/12/20 02:23:35;;;;;;;1.38;0.95;;;8.90;99.90;;;;;;5027231;28;20246;-88
2022/12/20 02:26:39;;;;;;;0.55;0.55;;;8.80;99.90;;;;;;5044607;28;20048;-86
2022/12/20 02:29:37;;;;;;;0.60;0.60;;;8.80;99.90;;;;;;5029809;28;20041;-88
2022/12/20 02:32:18;;;;;;;0.35;0.35;;;8.80;99.90;;;;;;5028098;28;20045;-88
2022/12/20 02:34:45;;;;;;;0.40;0.40;;;8.90;99.90;;;;;;5042249;28;20052;-86
2022/12/20 02:37:11;;;;;;;0.45;0.45;;;8.90;99.90;;;;;;5005658;28;20045;-86
2022/12/20 02:39:38;;;;;;;;;;;8.90;99.90;;;;;;5031317;28;20072;-85
2022/12/20 02:42:10;;;;;;;0.73;0.73;;;8.90;99.90;;;;;;5027929;28;19995;-85
2022/12/20 02:47:33;;;;;;;1.15;1.15;;;8.90;99.90;;;;;;5034246;28;20053;-88
2022/12/20 02:50:00;;;;;;;0.55;0.55;;;8.90;99.90;;;;;;5027856;28;20045;-85
2022/12/20 02:52:29;;;;;;;0.98;0.88;;;8.90;99.90;;;;;;5024993;28;20095;-86
2022/12/20 02:54:56;;;;;;;0.50;0.50;;;8.80;99.90;;;;;;5027510;28;20048;-87
2022/12/20 02:57:32;;;;;;;0.40;0.40;;;8.80;99.90;;;;;;5005053;28;20063;-87
2022/12/20 03:00:09;;;;;;;0.47;0.47;;;8.90;99.90;;;;;;5028619;28;20053;-88
2022/12/20 03:05:22;;;;;;;0.40;0.40;;;8.90;99.90;;;;;;5029987;28;20049;-85
2022/12/20 03:07:48;;;;;;;1.83;1.73;;;8.90;99.90;;;;;;5027336;28;20037;-88
2022/12/20 03:10:15;;;;;;;;;;;8.90;99.90;;;;;;5027994;28;20491;-90
2022/12/20 03:12:41;;;;;;;0.40;0.40;;;8.90;99.90;;;;;;5029177;28;21376;-85
2022/12/20 03:15:08;;;;;;;;;;;8.90;99.90;;;;;;4996351;28;20176;-89
2022/12/20 03:17:35;;;;;;;0.77;0.77;;;8.90;99.90;;;;;;5046095;28;19924;-86
2022/12/20 03:20:01;;;;;;;1.75;1.15;;;8.90;99.90;;;;;;5021248;28;20273;-88
2022/12/20 03:22:27;;;;;;;0.68;0.68;;;8.80;99.90;;;;;;5034608;28;20113;-86
2022/12/20 03:24:53;;;;;;;0.45;0.45;;;8.80;99.90;;;;;;5035408;28;20271;-86
2022/12/20 03:27:18;;;;;;;0.88;0.82;;;8.80;99.90;;;;;;5048702;28;20048;-84
2022/12/20 03:29:44;;;;;;;0.70;0.70;;;8.80;99.90;;;;;;5036275;28;20129;-86
2022/12/20 03:32:14;;;;;;;0.40;0.40;;;8.80;99.90;;;;;;5052412;28;21854;-86
2022/12/20 03:34:39;;;;;;;;;;;8.80;99.90;;;;;;5053736;28;20056;-86
2022/12/20 03:37:05;;;;;;;0.95;0.95;;;8.80;99.90;;;;;;5012923;28;19929;-85
2022/12/20 03:39:30;;;;;;;0.70;0.70;;;8.80;99.90;;;;;;5046531;28;20040;-87
2022/12/20 03:41:56;;;;;;;0.60;0.60;;;8.80;99.90;;;;;;5000988;28;20133;-86
2022/12/20 03:44:23;;;;;;;1.30;1.30;;;8.80;99.90;;;;;;5034200;28;20479;-86
2022/12/20 03:46:49;;;;;;;0.57;0.57;;;8.80;99.90;;;;;;5001407;28;20048;-86
2022/12/20 03:49:15;;;;;;;0.70;0.70;;;8.80;99.90;;;;;;5048279;28;20052;-86
2022/12/20 03:51:41;;;;;;;0.77;0.77;;;8.80;99.90;;;;;;5036111;28;20055;-87
2022/12/20 03:54:06;;;;;;;0.68;0.68;;;8.80;99.90;;;;;;5012115;28;20058;-89
2022/12/20 03:56:32;;;;;;;0.32;0.32;;;8.80;99.90;;;;;;5032958;28;20050;-89
2022/12/20 03:58:58;;;;;;;0.70;0.70;;;8.80;99.90;;;;;;5014854;28;20048;-86
2022/12/20 04:01:26;;;;;;;0.40;0.40;;;8.80;99.90;;;;;;5003313;28;20044;-87
2022/12/20 04:03:54;;;;;;;0.63;0.50;;;8.80;99.90;;;;;;5032706;28;20169;-85
2022/12/20 04:06:21;;;;;;;0.60;0.60;;;8.80;99.90;;;;;;5035149;28;20079;-85
2022/12/20 04:08:47;;;;;;;0.45;0.45;;;8.70;99.90;;;;;;5029866;28;20127;-86
2022/12/20 04:11:15;;;;;;;0.60;0.60;;;8.80;99.90;;;;;;5034689;28;20068;-86
2022/12/20 04:13:52;;;;;;;0.47;0.47;;;8.90;99.90;;;;;;5012239;28;20044;-87
2022/12/20 04:16:22;;;;;;;1.00;1.00;;;9.00;99.90;;;;;;5033642;28;20052;-87
2022/12/20 04:18:48;;;;;;;0.40;0.40;;;8.90;99.90;;;;;;5051791;28;20347;-85
2022/12/20 04:21:14;;;;;;;0.50;0.50;;;8.90;99.90;;;;;;5031604;28;20048;-87
2022/12/20 04:23:42;;;;;;;0.55;0.55;;;8.90;99.90;;;;;;5034901;28;20040;-87
2022/12/20 04:26:09;;;;;;;0.40;0.40;;;8.90;99.90;;;;;;5019018;28;20066;-88
2022/12/20 04:28:35;;;;;;;0.50;0.50;;;8.70;99.90;;;;;;5028594;28;20054;-85
2022/12/20 04:31:01;;;;;;;0.60;0.60;;;9.00;99.90;;;;;;5033779;28;20045;-85
2022/12/20 04:33:27;;;;;;;0.47;0.47;;;9.00;99.90;;;;;;5013292;28;20044;-87
2022/12/20 04:35:53;;;;;;;0.50;0.50;;;9.10;99.90;;;;;;5028848;28;20044;-86
2022/12/20 04:38:20;;;;;;;0.40;0.40;;;9.10;99.90;;;;;;5033178;28;20756;-86
2022/12/20 04:40:50;;;;;;;0.50;0.50;;;9.10;99.90;;;;;;5035136;28;20057;-87
2022/12/20 04:43:16;;;;;;;0.82;0.82;;;8.60;99.90;;;;;;5035318;28;20135;-90
2022/12/20 04:45:43;;;;;;;7.63;1.23;;;9.10;99.90;;;;;;5034718;28;20053;-86
2022/12/20 04:48:09;;;;;;;;;;;9.20;99.90;;;;;;5012847;28;20722;-85
2022/12/20 04:50:34;;;;;;;0.40;0.40;;;9.20;99.90;;;;;;5035986;28;21047;-88
2022/12/20 04:55:44;;;;;;;0.40;0.40;;;9.20;99.90;;;;;;5036431;28;20159;-86
2022/12/20 04:58:10;;;;;;;2.03;1.95;;;9.20;99.90;;;;;;5063715;28;20155;-85
2022/12/20 05:00:36;;;;;;;6.93;2.38;;;9.30;99.90;;;;;;5031142;28;20044;-85
2022/12/20 05:03:02;;;;;;;0.45;0.45;;;9.20;99.90;;;;;;5065089;28;20131;-85
2022/12/20 05:05:27;;;;;;;;;;;9.40;99.90;;;;;;5038364;28;20048;-87
2022/12/20 05:07:54;;;;;;;0.40;0.40;;;9.30;99.90;;;;;;5038606;28;19929;-87
2022/12/20 05:10:19;;;;;;;;;;;9.30;99.90;;;;;;5050712;28;20052;-86
2022/12/20 05:12:45;;;;;;;0.40;0.40;;;9.30;99.90;;;;;;5051685;28;19931;-85
2022/12/20 05:15:11;;;;;;;0.63;0.63;;;9.30;99.90;;;;;;5042325;28;20037;-89
2022/12/20 05:17:37;;;;;;;0.47;0.47;;;9.30;99.90;;;;;;5024629;28;20109;-85
2022/12/20 05:20:05;;;;;;;0.40;0.40;;;9.40;99.90;;;;;;5033840;28;20061;-86
2022/12/20 05:27:59;;;;;;;1.20;0.77;;;9.40;99.90;;;;;;5034075;28;20084;-85
2022/12/20 05:30:26;;;;;;;3.63;1.38;;;9.50;99.90;;;;;;5013412;28;20171;-86
2022/12/20 05:32:51;;;;;;;1.35;0.75;;;9.50;99.90;;;;;;5010133;28;20461;-87
2022/12/20 05:35:20;;;;;;;0.40;0.40;;;9.50;99.90;;;;;;5017153;28;20052;-88
2022/12/20 05:37:46;;;;;;;0.40;0.40;;;9.50;99.90;;;;;;5028031;28;20087;-87
2022/12/20 05:40:12;;;;;;;0.50;0.50;;;9.50;99.90;;;;;;5030067;28;20328;-88
2022/12/20 05:42:38;;;;;;;1.70;1.60;;;9.50;99.90;;;;;;5016352;28;20573;-87
2022/12/20 05:45:04;;;;;;;0.60;0.60;;;9.50;99.90;;;;;;5032563;28;21971;-86
2022/12/20 05:47:32;;;;;;;0.95;0.95;;;9.50;99.90;;;;;;5050112;28;20052;-88
2022/12/20 05:50:02;;;;;;;1.77;0.82;;;9.50;99.90;;;;;;5029398;28;20514;-87
2022/12/20 05:52:29;;;;;;;0.65;0.65;;;9.60;99.90;;;;;;5032859;28;20552;-88
2022/12/20 05:54:55;;;;;;;0.63;0.63;;;9.70;99.90;;;;;;5047356;28;20142;-85
2022/12/20 05:57:21;;;;;;;0.98;0.60;;;9.70;99.90;;;;;;5034804;28;20044;-86
2022/12/20 05:59:46;;;;;;;0.40;0.40;;;9.70;99.90;;;;;;5029805;28;20040;-87
2022/12/20 06:02:12;;;;;;;0.40;0.40;;;10.10;99.90;;;;;;5030361;28;20055;-86
2022/12/20 06:04:39;;;;;;;1.83;0.60;;;9.70;99.90;;;;;;5016339;28;20158;-89
2022/12/20 06:07:05;;;;;;;0.95;0.82;;;9.70;99.90;;;;;;5015693;28;20048;-89
2022/12/20 06:09:31;;;;;;;0.65;0.65;;;9.80;99.90;;;;;;5015895;28;20051;-87
2022/12/20 06:11:58;;;;;;;0.50;0.50;;;9.80;99.90;;;;;;5015803;28;20060;-85
2022/12/20 06:14:23;;;;;;;0.45;0.45;;;9.70;99.90;;;;;;5029490;28;20045;-86
2022/12/20 06:16:49;;;;;;;0.73;0.73;;;9.80;99.90;;;;;;4998307;28;20680;-86
2022/12/20 06:19:15;;;;;;;1.23;1.23;;;9.80;99.90;;;;;;5028372;28;20048;-85
2022/12/20 06:21:41;;;;;;;1.13;1.02;;;9.80;99.90;;;;;;5048364;28;20052;-85
2022/12/20 06:24:07;;;;;;;0.45;0.45;;;9.70;99.90;;;;;;5034613;28;21870;-89
2022/12/20 06:26:36;;;;;;;0.60;0.60;;;9.70;99.90;;;;;;5017949;28;20053;-86
2022/12/20 06:29:07;;;;;;;7.60;0.77;;;9.70;99.90;;;;;;5014720;28;20059;-86
2022/12/20 06:31:33;;;;;;;0.40;0.40;;;9.70;99.90;;;;;;5040360;28;20056;-88
2022/12/20 06:33:59;;;;;;;0.47;0.47;;;9.70;99.90;;;;;;5034745;28;20083;-87
2022/12/20 06:36:25;;;;;;;0.90;0.90;;;9.70;99.90;;;;;;5036230;28;20044;-87
2022/12/20 06:38:51;;;;;;;0.65;0.65;;;9.80;99.90;;;;;;5033570;28;20056;-87
2022/12/20 06:41:17;;;;;;;0.50;0.50;;;9.80;99.90;;;;;;5041786;28;20052;-86
2022/12/20 06:43:43;;;;;;;0.57;0.57;;;9.80;99.90;;;;;;5059933;28;20063;-87
2022/12/20 06:46:09;;;;;;;4.28;3.58;;;9.80;99.90;;;;;;5037024;28;20116;-85
2022/12/20 06:48:35;;;;;;;0.90;0.90;;;9.80;99.90;;;;;;5037406;28;20459;-85
2022/12/20 06:51:00;;;;;;;0.73;0.73;;;9.80;99.90;;;;;;5020863;28;20063;-85
2022/12/20 06:53:26;;;;;;;0.60;0.60;;;9.80;99.90;;;;;;5038354;28;20048;-84
2022/12/20 06:55:52;;;;;;;0.50;0.50;;;9.90;99.90;;;;;;5041859;28;20266;-85
2022/12/20 06:58:19;;;;;;;0.40;0.40;;;10.00;99.90;;;;;;5039992;28;20055;-85
2022/12/20 07:00:44;;;;;;;0.52;0.52;;;9.90;99.90;;;;;;5051845;28;20131;-86
2022/12/20 07:03:10;;;;;;;0.55;0.55;;;9.90;99.90;;;;;;5037176;28;20049;-86
2022/12/20 07:05:36;;;;;;;0.50;0.50;;;9.90;99.90;;;;;;5064124;28;20063;-87
2022/12/20 07:08:03;;;;;;;0.38;0.38;;;10.00;99.90;;;;;;5017944;28;20047;-85
2022/12/20 07:10:30;;;;;;;0.40;0.40;;;10.00;99.90;;;;;;5040246;28;20063;-86
2022/12/20 07:12:56;;;;;;;1.10;1.10;;;10.00;99.90;;;;;;5038163;28;20059;-85
2022/12/20 07:15:21;;;;;;;0.40;0.40;;;9.90;99.90;;;;;;5034011;28;20115;-88
2022/12/20 07:17:47;;;;;;;1.55;0.57;;;9.90;99.90;;;;;;5019875;28;20048;-86
2022/12/20 07:20:13;;;;;;;0.50;0.50;;;9.90;99.90;;;;;;5034803;28;20052;-86
2022/12/20 07:22:39;;;;;;;0.50;0.50;;;9.80;99.90;;;;;;5051989;28;20104;-87
2022/12/20 07:25:05;;;;;;;0.40;0.40;;;9.80;99.90;;;;;;5037581;28;20058;-87
2022/12/20 07:27:30;;;;;;;0.70;0.70;;;9.80;99.90;;;;;;5051009;28;20052;-86
2022/12/20 07:29:56;;;;;;;0.50;0.50;;;9.80;99.90;;;;;;5049132;28;20067;-87
2022/12/20 07:32:22;;;;;;;0.50;0.50;;;9.70;99.90;;;;;;5066113;28;20060;-86
2022/12/20 07:34:48;;;;;;;0.40;0.40;;;9.70;99.90;;;;;;5046111;28;20075;-87
2022/12/20 07:37:13;;;;;;;0.60;0.60;;;9.70;99.90;;;;;;5049793;28;20048;-87
2022/12/20 07:39:41;;;;;;;0.50;0.50;;;9.70;99.90;;;;;;5051594;28;20089;-86
2022/12/20 07:42:08;;;;;;;0.85;0.85;;;9.80;99.90;;;;;;5034263;28;20048;-85
2022/12/20 07:44:34;;;;;;;0.45;0.45;;;9.70;99.90;;;;;;5065642;28;20052;-88
2022/12/20 07:47:00;;;;;;;0.68;0.68;;;9.70;99.90;;;;;;5049514;28;20048;-85
2022/12/20 07:49:25;;;;;;;1.02;1.02;;;9.70;99.90;;;;;;5055306;28;20044;-87
2022/12/20 07:51:57;;;;;;;0.40;0.40;;;9.70;99.90;;;;;;5007712;28;20120;-86
2022/12/20 07:54:37;;;;;;;0.77;0.77;;;9.70;99.90;;;;;;5053323;28;20037;-90
2022/12/20 07:57:09;;;;;;;0.73;0.73;;;9.80;99.90;;;;;;5057299;28;20090;-86
2022/12/20 07:59:40;;;;;;;0.60;0.60;;;9.80;99.90;;;;;;5073354;28;20024;-88
2022/12/20 08:02:12;;;;;;;0.32;0.32;;;9.80;99.90;;;;;;5053051;28;20053;-88
2022/12/20 08:04:38;;;;;;;0.65;0.65;;;9.80;99.90;;;;;;5069840;28;20055;-85
2022/12/20 08:07:06;;;;;;;0.70;0.70;;;9.80;99.90;;;;;;5037940;28;20059;-85
2022/12/20 08:09:36;;;;;;;0.65;0.65;;;9.80;99.90;;;;;;5055481;28;20047;-86
2022/12/20 08:12:02;;;;;;;0.60;0.60;;;9.90;99.90;;;;;;5055572;28;20048;-89
2022/12/20 08:14:28;;;;;;;0.60;0.60;;;9.90;99.90;;;;;;5048358;28;20090;-88
2022/12/20 08:16:53;;;;;;;1.20;0.90;;;9.90;99.90;;;;;;5032291;28;20048;-86
2022/12/20 08:19:19;;;;;;;0.50;0.50;;;9.90;99.90;;;;;;5049810;28;20067;-88
2022/12/20 08:21:45;;;;;;;0.38;0.38;;;9.90;99.90;;;;;;5037259;28;20063;-88
2022/12/20 08:24:11;;;;;;;0.40;0.40;;;10.00;99.90;;;;;;5057802;28;20448;-88
2022/12/20 08:26:41;;;;;;;0.63;0.63;;;10.00;99.90;;;;;;5057283;28;20076;-89
2022/12/20 08:29:08;;;;;;;5.00;1.48;;;10.00;99.90;;;;;;5047085;28;20106;-85
2022/12/20 08:31:38;;;;;;;0.60;0.60;;;10.00;99.90;;;;;;5058469;28;20107;-85
2022/12/20 08:34:04;;;;;;;0.50;0.50;;;10.10;99.90;;;;;;5047118;28;21864;-86
2022/12/20 08:36:30;;;;;;;0.85;0.85;;;10.00;99.90;;;;;;5041338;28;20193;-89
2022/12/20 08:38:56;;;;;;;0.40;0.40;;;10.10;99.90;;;;;;5024847;28;20045;-86
2022/12/20 08:41:21;;;;;;;0.50;0.50;;;10.00;99.90;;;;;;5052209;28;20146;-87
2022/12/20 08:43:47;;;;;;;0.55;0.55;;;10.10;99.90;;;;;;5061039;28;20040;-88
2022/12/20 08:46:14;;;;;;;0.63;0.63;;;10.00;99.90;;;;;;5018090;28;20075;-88
2022/12/20 08:48:40;;;;;;;0.40;0.40;;;10.10;99.90;;;;;;5038588;28;20044;-88
2022/12/20 08:51:08;;;;;;;1.75;1.63;;;10.10;99.90;;;;;;5039517;28;20047;-88
2022/12/20 08:53:34;;;;;;;1.10;1.10;;;10.10;99.90;;;;;;5026651;28;20040;-86
2022/12/20 08:56:07;;;;;;;;;;;10.10;99.90;;;;;;5042117;28;20075;-85
2022/12/20 08:58:33;;;;;;;0.75;0.75;;;10.10;99.90;;;;;;5041758;28;19928;-84
2022/12/20 09:00:59;;;;;;;0.30;0.30;;;10.10;99.90;;;;;;5054121;28;20071;-85
2022/12/20 09:03:25;;;;;;;;;;;10.10;99.90;;;;;;5034288;28;20075;-84
2022/12/20 09:05:51;;;;;;;0.50;0.50;;;10.20;99.90;;;;;;5045455;28;20761;-87
2022/12/20 09:08:17;;;;;;;0.70;0.70;;;10.20;99.90;;;;;;5012944;28;20059;-84
2022/12/20 09:10:43;;;;;;;0.47;0.47;;;10.20;99.90;;;;;;5030724;28;20284;-83
2022/12/20 09:13:10;;;;;;;1.05;0.75;;;10.20;99.90;;;;;;5023274;28;20108;-84
2022/12/20 09:15:36;;;;;;;2.83;2.63;;;10.30;99.90;;;;;;5030210;28;20029;-85
2022/12/20 09:18:02;;;;;;;0.70;0.70;;;10.30;99.90;;;;;;5009946;28;20071;-85
2022/12/20 09:20:28;;;;;;;0.50;0.50;;;10.40;99.90;;;;;;5006547;28;20056;-86
2022/12/20 09:22:54;;;;;;;0.50;0.50;;;10.40;99.90;;;;;;5007391;28;20111;-86
2022/12/20 09:25:19;;;;;;;0.60;0.60;;;10.40;99.90;;;;;;4988690;28;20057;-85
2022/12/20 09:27:45;;;;;;;0.45;0.45;;;10.40;99.90;;;;;;4995500;28;20098;-84
2022/12/20 09:30:11;;;;;;;1.38;0.70;;;10.40;99.90;;;;;;5016677;28;20049;-85
2022/12/20 09:32:37;;;;;;;0.77;0.77;;;10.40;99.90;;;;;;5010751;28;20049;-86
2022/12/20 09:35:04;;;;;;;0.55;0.55;;;10.50;99.90;;;;;;5015023;28;20052;-84
2022/12/20 09:37:31;;;;;;;0.47;0.47;;;10.50;99.90;;;;;;4994145;28;20041;-85
2022/12/20 09:39:57;;;;;;;0.65;0.65;;;10.50;99.90;;;;;;5015514;28;20055;-86
2022/12/20 09:42:26;;;;;;;0.25;0.25;;;10.50;99.90;;;;;;5012069;28;20875;-86
2022/12/20 09:45:04;;;;;;;0.60;0.60;;;10.60;99.90;;;;;;5007946;28;21477;-84
2022/12/20 09:47:34;;;;;;;0.40;0.40;;;10.60;99.90;;;;;;5019060;28;21239;-83
2022/12/20 09:50:03;;;;;;;0.40;0.40;;;10.70;99.90;;;;;;5010759;28;20059;-84
2022/12/20 09:53:06;;;;;;;0.40;0.40;;;10.80;99.90;;;;;;4990659;28;20162;-86
2022/12/20 09:55:45;;;;;;;0.63;0.63;;;10.80;99.90;;;;;;4995126;28;20996;-85
2022/12/20 09:58:44;;;;;;;0.40;0.40;;;10.90;99.90;;;;;;5016681;28;20064;-84
2022/12/20 10:01:23;;;;;;;0.50;0.50;;;10.90;99.90;;;;;;5008370;28;20328;-84
2022/12/20 10:03:49;;;;;;;0.57;0.57;;;10.90;99.90;;;;;;4992819;28;20052;-86
2022/12/20 10:06:24;;;;;;;0.85;0.60;;;11.00;99.90;;;;;;4990507;28;20055;-85
2022/12/20 10:08:58;;;;;;;0.50;0.50;;;10.90;99.90;;;;;;5006995;28;20176;-85
2022/12/20 10:11:36;;;;;;;2.17;0.52;;;11.00;99.90;;;;;;4989068;28;20087;-84
2022/12/20 10:14:26;;;;;;;0.30;0.30;;;10.90;99.90;;;;;;5009118;28;20055;-84
2022/12/20 10:17:03;;;;;;;0.50;0.50;;;10.90;99.90;;;;;;5023072;28;20056;-85
2022/12/20 10:19:34;;;;;;;0.40;0.40;;;10.90;99.90;;;;;;4998406;28;20063;-85
2022/12/20 10:22:06;;;;;;;0.30;0.30;;;10.90;99.90;;;;;;5016157;28;20664;-85
2022/12/20 10:24:33;;;;;;;0.82;0.70;;;10.90;99.90;;;;;;4999921;28;20107;-84
2022/12/20 10:27:16;;;;;;;0.40;0.40;;;10.90;99.90;;;;;;5001421;28;20122;-87
2022/12/20 10:29:43;;;;;;;0.50;0.50;;;10.90;99.90;;;;;;5009744;28;20206;-85
2022/12/20 10:32:18;;;;;;;0.40;0.40;;;10.90;99.90;;;;;;5006113;28;20053;-85
2022/12/20 10:34:56;;;;;;;2.30;1.98;;;10.90;99.90;;;;;;5002121;28;20060;-84
2022/12/20 10:37:21;;;;;;;0.30;0.30;;;10.90;99.90;;;;;;5002187;28;20061;-86
2022/12/20 10:39:49;;;;;;;2.42;0.82;;;10.90;99.90;;;;;;4990071;28;20045;-86
2022/12/20 10:42:44;;;;;;;0.45;0.45;;;10.90;99.90;;;;;;4992527;28;20060;-86
2022/12/20 10:45:22;;;;;;;0.52;0.52;;;10.90;99.90;;;;;;4988488;28;20053;-84
2022/12/20 10:47:53;;;;;;;0.43;0.43;;;10.90;99.90;;;;;;4981306;28;20053;-87
2022/12/20 10:50:21;;;;;;;0.60;0.60;;;10.90;99.90;;;;;;4977339;28;20053;-85
2022/12/20 10:53:09;;;;;;;0.40;0.40;;;11.00;99.90;;;;;;4991735;28;20163;-85
2022/12/20 10:55:42;;;;;;;0.40;0.40;;;10.90;99.90;;;;;;4992803;28;20114;-85
2022/12/20 10:58:21;;;;;;;0.57;0.57;;;10.90;99.90;;;;;;4975496;28;20522;-86
2022/12/20 11:00:48;;;;;;;0.57;0.57;;;11.00;99.90;;;;;;4992095;28;20057;-83
2022/12/20 11:03:20;;;;;;;0.45;0.45;;;11.10;99.90;;;;;;4978465;28;21232;-88
2022/12/20 11:06:14;;;;;;;1.02;1.00;;;11.00;99.90;;;;;;4977996;28;20057;-86
2022/12/20 11:08:40;;;;;;;0.77;0.77;;;11.00;99.90;;;;;;4989985;28;20061;-85
2022/12/20 11:11:25;;;;;;;3.22;0.82;;;11.10;99.90;;;;;;4989399;28;20091;-83
2022/12/20 11:13:51;;;;;;;0.30;0.30;;;11.00;99.90;;;;;;4992353;28;20053;-85
2022/12/20 11:16:23;;;;;;;;;;;11.00;99.90;;;;;;4993988;28;20049;-83
2022/12/20 11:19:07;;;;;;;0.47;0.47;;;10.90;99.90;;;;;;5000493;28;20665;-83
2022/12/20 11:22:05;;;;;;;0.80;0.80;;;10.80;99.90;;;;;;4995483;28;20861;-84
2022/12/20 11:24:36;;;;;;;2.58;0.70;;;11.10;99.90;;;;;;4987508;28;20178;-85
2022/12/20 11:27:34;;;;;;;0.40;0.40;;;10.70;99.90;;;;;;4995246;28;20059;-84
2022/12/20 11:30:05;;;;;;;0.50;0.50;;;10.60;99.90;;;;;;5012541;28;20052;-86
2022/12/20 11:32:59;;;;;;;0.30;0.30;;;10.50;99.90;;;;;;5012868;28;20048;-84
2022/12/20 11:35:36;;;;;;;0.73;0.70;;;10.50;99.90;;;;;;5010863;28;20044;-87
2022/12/20 11:38:16;;;;;;;0.52;0.52;;;10.50;99.90;;;;;;5013940;28;21330;-88
2022/12/20 11:41:23;;;;;;;1.10;0.70;;;10.60;99.90;;;;;;5021210;28;20049;-85
2022/12/20 11:43:51;;;;;;;0.40;0.40;;;10.50;99.90;;;;;;4994595;28;20056;-83
2022/12/20 11:46:32;;;;;;;0.82;0.82;;;10.10;99.90;;;;;;5000308;28;20180;-84
2022/12/20 11:49:07;;;;;;;0.50;0.50;;;10.50;99.90;;;;;;5017733;28;20057;-85
2022/12/20 11:51:44;;;;;;;0.40;0.40;;;10.50;99.90;;;;;;5038005;28;20053;-84
2022/12/20 11:54:18;;;;;;;1.05;1.05;;;10.50;99.90;;;;;;5018377;28;20061;-84
2022/12/20 11:56:47;;;;;;;0.73;0.60;;;10.50;99.90;;;;;;5017591;28;20075;-84
2022/12/20 11:59:35;;;;;;;0.63;0.63;;;10.50;99.90;;;;;;5018541;28;20060;-85
2022/12/20 12:02:13;;;;;;;0.80;0.80;;;10.50;99.90;;;;;;5014875;28;20053;-84
2022/12/20 12:04:49;;;;;;;0.63;0.63;;;10.50;99.90;;;;;;4995471;28;21200;-84
2022/12/20 12:07:29;;;;;;;0.73;0.73;;;10.50;99.90;;;;;;5013951;28;20045;-85
2022/12/20 12:10:18;;;;;;;0.60;0.60;;;10.40;99.90;;;;;;5019355;28;20721;-85
2022/12/20 12:12:47;;;;;;;0.50;0.50;;;10.40;99.90;;;;;;5013089;28;20107;-85
2022/12/20 12:15:35;;;;;;;0.30;0.30;;;10.40;99.90;;;;;;5013143;28;20053;-87
2022/12/20 12:18:19;;;;;;;0.40;0.40;;;10.40;99.90;;;;;;5018643;28;20053;-84
2022/12/20 12:21:09;;;;;;;0.40;0.40;;;10.40;99.90;;;;;;5016595;28;20052;-85
2022/12/20 12:24:09;;;;;;;0.98;0.98;;;10.40;99.90;;;;;;5015065;28;20105;-84
2022/12/20 12:26:39;;;;;;;0.55;0.55;;;10.40;99.90;;;;;;5018217;28;20052;-84
2022/12/20 12:29:08;;;;;;;0.50;0.50;;;10.40;99.90;;;;;;5023990;28;20071;-85
2022/12/20 12:31:34;;;;;;;0.40;0.40;;;10.40;99.90;;;;;;5034859;28;20056;-85
2022/12/20 12:34:37;;;;;;;0.40;0.40;;;10.40;99.90;;;;;;5027008;28;20153;-84
2022/12/20 12:37:24;;;;;;;0.32;0.32;;;10.40;99.90;;;;;;5027254;28;20060;-85
2022/12/20 12:40:22;;;;;;;0.50;0.50;;;10.40;99.90;;;;;;5030888;28;20355;-84
2022/12/20 12:43:15;;;;;;;0.60;0.60;;;10.40;99.90;;;;;;5028140;28;20040;-83
2022/12/20 12:45:47;;;;;;;0.63;0.63;;;10.30;99.90;;;;;;5032106;28;20075;-84
2022/12/20 12:48:22;;;;;;;0.95;0.95;;;10.30;99.90;;;;;;5027878;28;20137;-83
2022/12/20 12:50:51;;;;;;;0.70;0.70;;;10.30;99.90;;;;;;5029869;28;20070;-84
2022/12/20 12:53:19;;;;;;;1.67;1.60;;;10.30;99.90;;;;;;5020279;28;20068;-83
2022/12/20 12:55:46;;;;;;;0.63;0.63;;;10.30;99.90;;;;;;5019841;28;20063;-85
2022/12/20 12:58:30;;;;;;;0.60;0.60;;;10.20;99.90;;;;;;5016799;28;20060;-84
2022/12/20 13:00:56;;;;;;;0.45;0.45;;;10.20;99.90;;;;;;5016506;28;20061;-85
2022/12/20 13:03:42;;;;;;;0.50;0.50;;;10.20;99.90;;;;;;5020927;28;20055;-84
2022/12/20 13:06:29;;;;;;;0.77;0.77;;;10.20;99.90;;;;;;5030765;28;20052;-89
2022/12/20 13:08:58;;;;;;;0.50;0.50;;;10.20;99.90;;;;;;5036923;28;21313;-84
2022/12/20 13:11:40;;;;;;;0.73;0.73;;;10.20;99.90;;;;;;5026434;28;20064;-85
2022/12/20 13:14:24;;;;;;;0.60;0.60;;;10.20;99.90;;;;;;5014594;28;20063;-83
2022/12/20 13:16:59;;;;;;;0.85;0.85;;;10.20;99.90;;;;;;5015563;28;21295;-84
2022/12/20 13:19:24;;;;;;;0.40;0.40;;;10.20;99.90;;;;;;5000416;28;20068;-85
2022/12/20 13:22:28;;;;;;;0.52;0.52;;;10.20;99.90;;;;;;5022809;28;20106;-85
2022/12/20 13:25:22;;;;;;;0.40;0.40;;;10.20;99.90;;;;;;5026928;28;20203;-83
2022/12/20 13:27:50;;;;;;;0.40;0.40;;;10.20;99.90;;;;;;5016541;28;20044;-85